Time;durP1;ratioP1;P1;durP2;ratioP2;P2;SDS_P1;SDS_P2;PMS_P1;PMS_P2;Temp;Humidity;BMP_temperature;BMP_pressure;BME280_temperature;BME280_humidity;BME280_pressure;Samples;Min_cycle;Max_cycle;Signal;HPM_P1;HPM_P2
2022/06/17 00:00:23;;;;;;;8.93;6.03;;;12.60;94.80;;;;;;5128461;27;20031;-61
2022/06/17 00:02:48;;;;;;;6.78;5.60;;;12.50;94.90;;;;;;5151182;27;20059;-61
2022/06/17 00:05:14;;;;;;;8.15;5.75;;;12.50;94.60;;;;;;5142918;27;20177;-63
2022/06/17 00:07:42;;;;;;;8.07;5.97;;;12.50;94.50;;;;;;5150461;27;20039;-61
2022/06/17 00:10:26;;;;;;;9.88;6.05;;;12.50;94.40;;;;;;5149895;27;20039;-63
2022/06/17 00:12:52;;;;;;;8.23;5.97;;;12.50;96.10;;;;;;5139565;27;20060;-61
2022/06/17 00:15:19;;;;;;;8.60;5.43;;;12.40;95.00;;;;;;5139648;27;20042;-62
2022/06/17 00:17:48;;;;;;;7.63;5.60;;;12.40;94.90;;;;;;5139822;27;20118;-62
2022/06/17 00:20:18;;;;;;;8.52;5.85;;;12.40;94.80;;;;;;5147456;27;20046;-61
2022/06/17 00:22:44;;;;;;;7.03;5.85;;;12.30;94.70;;;;;;5143093;27;20095;-63
2022/06/17 00:25:22;;;;;;;8.05;6.30;;;12.20;94.70;;;;;;5128394;27;20038;-61
2022/06/17 00:27:48;;;;;;;6.30;5.45;;;12.20;95.10;;;;;;5149468;27;20026;-61
2022/06/17 00:30:21;;;;;;;9.18;5.40;;;12.20;94.80;;;;;;5147659;27;20470;-61
2022/06/17 00:32:47;;;;;;;7.53;5.80;;;12.30;95.10;;;;;;5145625;27;20543;-61
2022/06/17 00:35:12;;;;;;;9.30;5.65;;;12.40;94.90;;;;;;5144986;27;20070;-61
2022/06/17 00:37:40;;;;;;;8.77;6.13;;;12.30;94.80;;;;;;5142640;27;20124;-63
2022/06/17 00:40:26;;;;;;;7.90;6.20;;;12.30;95.00;;;;;;5126675;27;20069;-63
2022/06/17 00:42:53;;;;;;;6.85;5.72;;;12.30;95.50;;;;;;5150415;27;20038;-61
2022/06/17 00:45:26;;;;;;;7.53;6.38;;;12.30;95.00;;;;;;5142595;27;20039;-62
2022/06/17 00:48:15;;;;;;;10.60;6.45;;;12.30;95.20;;;;;;5130474;27;20474;-61
2022/06/17 00:51:07;;;;;;;8.77;6.10;;;12.30;95.20;;;;;;5151005;27;20050;-61
2022/06/17 00:53:59;;;;;;;8.77;6.03;;;12.20;95.50;;;;;;5145213;27;20047;-61
2022/06/17 00:56:32;;;;;;;7.82;6.32;;;12.10;95.50;;;;;;5131359;27;20054;-62
2022/06/17 00:59:00;;;;;;;9.18;6.30;;;12.10;95.70;;;;;;5142342;27;20027;-62
2022/06/17 01:01:29;;;;;;;9.43;6.38;;;12.10;97.10;;;;;;5138164;27;20470;-61
2022/06/17 01:04:00;;;;;;;9.32;6.13;;;12.10;96.20;;;;;;5139244;27;20554;-61
2022/06/17 01:06:31;;;;;;;7.60;5.68;;;12.10;95.80;;;;;;5148064;27;20118;-61
2022/06/17 01:12:02;;;;;;;9.98;6.47;;;12.00;95.80;;;;;;5149402;27;20414;-62
2022/06/17 01:14:29;;;;;;;;;;;11.90;95.70;;;;;;5142794;27;20119;-61
2022/06/17 01:16:56;;;;;;;7.47;6.07;;;11.90;96.80;;;;;;5149346;27;19922;-61
2022/06/17 01:19:42;;;;;;;8.82;6.25;;;11.90;95.70;;;;;;5142797;27;20035;-61
2022/06/17 01:22:07;;;;;;;9.50;6.45;;;11.90;96.30;;;;;;5151287;27;20045;-61
2022/06/17 01:24:33;;;;;;;13.13;7.07;;;11.90;95.90;;;;;;5145375;27;20035;-62
2022/06/17 01:26:59;;;;;;;8.25;6.47;;;11.90;96.10;;;;;;5151506;27;20035;-61
2022/06/17 01:29:24;;;;;;;9.02;6.63;;;11.90;96.20;;;;;;5148428;27;20037;-61
2022/06/17 01:31:54;;;;;;;9.25;6.90;;;11.90;96.20;;;;;;5149642;27;20090;-61
2022/06/17 01:34:21;;;;;;;8.88;6.93;;;11.80;96.30;;;;;;5150723;27;20084;-61
2022/06/17 01:36:47;;;;;;;8.93;7.25;;;11.80;96.30;;;;;;5151092;27;20049;-61
2022/06/17 01:39:13;;;;;;;10.93;7.60;;;11.80;96.40;;;;;;5146164;27;20049;-62
2022/06/17 01:41:41;;;;;;;12.15;7.97;;;11.80;96.50;;;;;;5146284;27;20048;-62
2022/06/17 01:44:33;;;;;;;12.85;8.75;;;11.80;96.50;;;;;;5143095;27;20038;-63
2022/06/17 01:47:00;;;;;;;11.70;8.65;;;11.80;96.90;;;;;;5145248;27;20486;-61
2022/06/17 01:49:31;;;;;;;13.18;8.48;;;11.80;96.50;;;;;;5153403;27;20435;-61
2022/06/17 01:52:04;;;;;;;12.32;8.73;;;11.80;96.50;;;;;;5149486;27;20076;-61
2022/06/17 01:54:37;;;;;;;12.88;9.43;;;11.80;96.60;;;;;;5133011;27;20058;-62
2022/06/17 01:57:06;;;;;;;12.57;9.65;;;11.80;96.50;;;;;;5146988;27;20520;-61
2022/06/17 01:59:38;;;;;;;13.55;9.30;;;11.80;96.50;;;;;;5152845;27;20034;-61
2022/06/17 02:02:05;;;;;;;15.57;9.73;;;11.80;96.50;;;;;;5150086;27;20041;-62
2022/06/17 02:04:36;;;;;;;13.88;10.15;;;11.80;96.50;;;;;;5151382;27;20527;-62
2022/06/17 02:07:11;;;;;;;12.63;9.75;;;11.80;96.60;;;;;;5151588;27;20062;-61
2022/06/17 02:09:36;;;;;;;15.13;10.48;;;11.80;96.50;;;;;;5152231;27;20042;-60
2022/06/17 02:12:03;;;;;;;16.23;10.43;;;11.90;96.40;;;;;;5147677;27;20038;-61
2022/06/17 02:14:29;;;;;;;14.73;11.05;;;11.90;96.40;;;;;;5148823;27;20042;-61
2022/06/17 02:16:56;;;;;;;16.63;11.18;;;11.90;96.40;;;;;;5147060;27;20053;-60
2022/06/17 02:19:24;;;;;;;15.52;10.77;;;11.90;96.30;;;;;;5150566;27;20189;-61
2022/06/17 02:22:07;;;;;;;20.80;11.63;;;12.00;96.30;;;;;;5128606;27;20486;-61
2022/06/17 02:24:33;;;;;;;15.25;10.68;;;12.00;96.20;;;;;;5147434;27;20417;-62
2022/06/17 02:27:01;;;;;;;14.05;10.65;;;12.10;96.00;;;;;;5151624;27;20034;-61
2022/06/17 02:29:30;;;;;;;15.73;10.05;;;12.10;96.10;;;;;;5147777;27;20394;-61
2022/06/17 02:31:58;;;;;;;15.93;11.35;;;12.10;96.10;;;;;;5140699;27;20398;-61
2022/06/17 02:34:24;;;;;;;16.55;10.80;;;12.10;96.00;;;;;;5148487;27;20027;-61
2022/06/17 02:37:03;;;;;;;17.25;11.85;;;12.20;95.90;;;;;;5147144;27;20483;-61
2022/06/17 02:39:29;;;;;;;17.00;11.23;;;12.20;96.00;;;;;;5146555;27;20422;-62
2022/06/17 02:41:55;;;;;;;16.65;10.98;;;12.20;95.70;;;;;;5150509;27;20042;-63
2022/06/17 02:44:25;;;;;;;14.80;11.18;;;12.20;95.70;;;;;;5141905;27;20039;-61
2022/06/17 02:46:54;;;;;;;14.52;10.55;;;12.30;95.70;;;;;;5143311;27;20400;-62
2022/06/17 02:49:24;;;;;;;16.20;10.77;;;12.30;95.70;;;;;;5148681;27;20164;-61
2022/06/17 02:51:50;;;;;;;16.15;11.43;;;12.30;95.60;;;;;;5148298;27;20494;-61
2022/06/17 02:54:23;;;;;;;14.75;10.48;;;12.30;95.60;;;;;;5143639;27;20043;-62
2022/06/17 02:56:52;;;;;;;16.08;10.93;;;12.30;95.60;;;;;;5146536;27;20142;-61
2022/06/17 02:59:40;;;;;;;17.52;11.93;;;12.20;95.60;;;;;;5148091;27;20042;-61
2022/06/17 03:02:16;;;;;;;14.90;11.02;;;12.20;96.00;;;;;;5139990;27;20253;-61
2022/06/17 03:04:43;;;;;;;14.85;11.23;;;12.20;95.80;;;;;;5145974;27;20027;-62
2022/06/17 03:07:15;;;;;;;15.50;10.30;;;12.10;95.60;;;;;;5151828;27;20062;-61
2022/06/17 03:09:41;;;;;;;15.55;10.88;;;12.20;95.70;;;;;;5147274;27;20614;-62
2022/06/17 03:12:08;;;;;;;13.48;9.80;;;12.20;95.40;;;;;;5146569;27;20043;-61
2022/06/17 03:14:46;;;;;;;14.45;10.30;;;12.30;95.40;;;;;;5140781;27;20039;-61
2022/06/17 03:17:15;;;;;;;15.43;10.30;;;12.30;95.20;;;;;;5139143;27;20076;-62
2022/06/17 03:19:41;;;;;;;13.40;9.38;;;12.30;95.30;;;;;;5151302;27;20085;-62
2022/06/17 03:22:11;;;;;;;15.13;10.48;;;12.30;94.80;;;;;;5151541;27;20038;-63
2022/06/17 03:24:49;;;;;;;12.55;9.52;;;12.30;94.90;;;;;;5152214;27;20514;-61
2022/06/17 03:27:24;;;;;;;16.27;10.38;;;12.20;94.90;;;;;;5144137;27;20042;-61
2022/06/17 03:29:51;;;;;;;15.95;10.05;;;12.20;95.00;;;;;;5147631;27;20122;-61
2022/06/17 03:32:26;;;;;;;16.30;9.85;;;12.30;94.90;;;;;;5141561;27;20026;-63
2022/06/17 03:34:53;;;;;;;14.60;9.68;;;12.30;94.90;;;;;;5149015;27;20049;-62
2022/06/17 03:37:37;;;;;;;15.30;10.82;;;12.40;94.90;;;;;;5140108;27;20039;-61
2022/06/17 03:40:17;;;;;;;13.85;9.70;;;12.50;95.10;;;;;;5136068;27;20048;-62
2022/06/17 03:42:54;;;;;;;12.90;10.15;;;12.60;95.10;;;;;;5134239;27;20079;-62
2022/06/17 03:45:25;;;;;;;13.93;9.93;;;12.70;94.80;;;;;;5141263;27;20030;-62
2022/06/17 03:47:59;;;;;;;12.18;9.20;;;12.70;94.70;;;;;;5147815;27;20276;-61
2022/06/17 03:50:36;;;;;;;11.48;9.15;;;12.90;94.50;;;;;;5151914;27;20043;-61
2022/06/17 03:53:14;;;;;;;13.48;9.20;;;13.00;94.70;;;;;;5133478;27;20055;-61
2022/06/17 03:55:39;;;;;;;13.20;8.63;;;13.00;94.30;;;;;;5151879;27;20050;-60
2022/06/17 03:58:06;;;;;;;12.70;8.75;;;13.10;94.10;;;;;;5151928;27;20140;-62
2022/06/17 04:00:46;;;;;;;14.02;8.57;;;13.10;93.90;;;;;;5146248;27;20855;-61
2022/06/17 04:03:21;;;;;;;10.47;8.03;;;13.10;94.00;;;;;;5148446;27;20034;-61
2022/06/17 04:05:52;;;;;;;12.80;9.52;;;13.20;94.10;;;;;;5143187;27;20414;-61
2022/06/17 04:08:17;;;;;;;14.38;9.00;;;13.10;94.10;;;;;;5153036;27;20041;-61
2022/06/17 04:10:43;;;;;;;12.63;8.70;;;13.20;94.10;;;;;;5140784;27;20035;-61
2022/06/17 04:13:15;;;;;;;13.95;9.45;;;13.20;94.10;;;;;;5142454;27;20069;-62
2022/06/17 04:15:43;;;;;;;12.52;9.00;;;13.10;94.10;;;;;;5134802;27;20391;-61
2022/06/17 04:18:09;;;;;;;12.60;8.88;;;13.10;94.20;;;;;;5145645;27;20093;-60
2022/06/17 04:20:54;;;;;;;13.27;9.05;;;13.20;94.20;;;;;;5123673;27;20050;-61
2022/06/17 04:23:26;;;;;;;11.55;8.77;;;13.20;94.40;;;;;;5145936;27;20438;-61
2022/06/17 04:26:09;;;;;;;13.10;9.10;;;13.30;94.30;;;;;;5148664;27;20075;-61
2022/06/17 04:28:52;;;;;;;15.13;8.77;;;13.50;93.90;;;;;;5150165;27;20031;-60
2022/06/17 04:31:24;;;;;;;14.02;9.00;;;13.60;93.70;;;;;;5145543;27;20037;-61
2022/06/17 04:33:55;;;;;;;13.98;8.93;;;13.80;93.40;;;;;;5150078;27;20043;-62
2022/06/17 04:36:26;;;;;;;13.88;8.10;;;13.90;93.20;;;;;;5125455;27;20074;-61
2022/06/17 04:39:14;;;;;;;14.10;8.52;;;14.00;93.00;;;;;;5142015;27;20043;-63
2022/06/17 04:41:42;;;;;;;11.63;8.60;;;14.10;93.00;;;;;;5150951;27;20034;-62
2022/06/17 04:44:13;;;;;;;11.93;8.65;;;14.20;92.90;;;;;;5144917;27;20174;-62
2022/06/17 04:46:49;;;;;;;11.75;7.70;;;14.30;92.90;;;;;;5141720;27;20058;-62
2022/06/17 04:49:20;;;;;;;14.27;8.10;;;14.40;92.80;;;;;;5146279;27;20125;-63
2022/06/17 04:51:48;;;;;;;11.77;7.38;;;14.50;92.70;;;;;;5146938;27;20037;-61
2022/06/17 04:54:15;;;;;;;12.65;7.43;;;14.60;92.30;;;;;;5144665;27;20063;-61
2022/06/17 04:56:45;;;;;;;8.68;6.70;;;14.70;92.10;;;;;;5143341;27;20054;-62
2022/06/17 04:59:29;;;;;;;9.35;7.10;;;14.80;92.00;;;;;;5144638;27;20585;-61
2022/06/17 05:01:55;;;;;;;9.50;6.85;;;14.90;91.00;;;;;;5141153;27;20082;-61
2022/06/17 05:04:22;;;;;;;9.43;6.53;;;14.90;90.50;;;;;;5131935;27;20043;-61
2022/06/17 05:06:48;;;;;;;8.40;6.40;;;15.00;90.60;;;;;;5132749;27;20031;-61
2022/06/17 05:09:30;;;;;;;10.10;6.78;;;15.10;90.40;;;;;;5140179;27;20043;-61
2022/06/17 05:12:03;;;;;;;10.27;6.55;;;15.10;90.20;;;;;;5140375;27;20053;-62
2022/06/17 05:14:52;;;;;;;6.93;5.93;;;15.20;90.10;;;;;;5146997;27;20042;-61
2022/06/17 05:17:19;;;;;;;10.38;6.97;;;15.20;89.40;;;;;;5126440;27;20088;-60
2022/06/17 05:19:44;;;;;;;11.30;6.55;;;15.30;87.90;;;;;;5124949;27;20042;-62
2022/06/17 05:22:33;;;;;;;10.38;6.47;;;15.40;89.10;;;;;;5144172;27;20038;-61
2022/06/17 05:25:02;;;;;;;9.73;7.15;;;15.40;88.00;;;;;;5140727;27;20026;-61
2022/06/17 05:27:28;;;;;;;9.70;7.55;;;15.50;88.30;;;;;;5145585;27;20039;-61
2022/06/17 05:29:53;;;;;;;11.57;7.47;;;15.60;88.20;;;;;;5141779;27;20031;-62
2022/06/17 05:32:21;;;;;;;10.60;7.90;;;15.70;87.90;;;;;;5145404;27;20076;-63
2022/06/17 05:34:47;;;;;;;9.52;7.35;;;15.70;87.70;;;;;;5144909;27;20087;-61
2022/06/17 05:37:13;;;;;;;10.63;7.78;;;15.80;87.90;;;;;;5144351;27;20038;-62
2022/06/17 05:39:39;;;;;;;10.85;7.80;;;15.90;87.60;;;;;;5142462;27;20573;-61
2022/06/17 05:42:06;;;;;;;10.55;8.05;;;15.90;87.90;;;;;;5128822;27;20129;-62
2022/06/17 05:44:32;;;;;;;14.63;7.55;;;15.90;87.70;;;;;;5147904;27;20122;-62
2022/06/17 05:46:58;;;;;;;10.98;8.23;;;16.00;87.40;;;;;;5141744;27;20516;-60
2022/06/17 05:49:24;;;;;;;12.55;8.18;;;16.00;87.30;;;;;;5150236;27;20059;-60
2022/06/17 05:51:50;;;;;;;12.15;8.23;;;16.10;87.40;;;;;;5140656;27;20118;-61
2022/06/17 05:54:15;;;;;;;16.13;9.55;;;16.10;87.30;;;;;;5142680;27;20405;-61
2022/06/17 05:56:41;;;;;;;14.70;9.30;;;16.10;87.00;;;;;;5139719;27;20045;-60
2022/06/17 05:59:06;;;;;;;13.02;9.10;;;16.20;86.10;;;;;;5126646;27;20585;-61
2022/06/17 06:01:32;;;;;;;10.75;8.30;;;16.20;86.60;;;;;;5146703;27;20030;-60
2022/06/17 06:03:58;;;;;;;10.90;8.70;;;16.20;86.70;;;;;;5153790;27;20465;-62
2022/06/17 06:06:24;;;;;;;11.38;8.15;;;16.30;86.80;;;;;;5147559;27;20439;-62
2022/06/17 06:08:49;;;;;;;15.15;8.60;;;16.30;86.70;;;;;;5144912;27;20045;-63
2022/06/17 06:11:15;;;;;;;14.85;8.52;;;16.40;86.60;;;;;;5123847;27;20470;-62
2022/06/17 06:13:41;;;;;;;11.70;8.13;;;16.40;86.60;;;;;;5145156;27;20530;-62
2022/06/17 06:16:08;;;;;;;12.57;8.35;;;16.40;86.50;;;;;;5163735;27;20030;-62
2022/06/17 06:18:37;;;;;;;14.68;8.73;;;16.50;86.20;;;;;;5148597;27;20030;-62
2022/06/17 06:21:04;;;;;;;12.57;8.75;;;16.50;85.80;;;;;;5151382;27;20030;-61
2022/06/17 06:23:34;;;;;;;15.75;9.80;;;16.70;85.60;;;;;;5149498;27;20034;-62
2022/06/17 06:26:00;;;;;;;12.95;9.25;;;16.70;85.20;;;;;;5149049;27;20073;-61
2022/06/17 06:28:27;;;;;;;12.60;9.35;;;16.70;85.40;;;;;;5136516;27;20113;-62
2022/06/17 06:31:01;;;;;;;14.27;9.38;;;16.80;85.70;;;;;;5141715;27;20538;-62
2022/06/17 06:33:26;;;;;;;15.60;9.90;;;16.80;85.40;;;;;;5144670;27;20394;-63
2022/06/17 06:35:52;;;;;;;12.07;8.85;;;16.90;85.10;;;;;;5161891;27;20027;-62
2022/06/17 06:38:18;;;;;;;12.48;8.13;;;17.00;84.00;;;;;;5129304;27;20034;-61
2022/06/17 06:40:43;;;;;;;14.52;9.43;;;17.10;84.40;;;;;;5152131;27;20027;-60
2022/06/17 06:43:20;;;;;;;12.57;9.65;;;17.10;84.40;;;;;;5146766;27;20050;-61
2022/06/17 06:45:49;;;;;;;13.38;8.48;;;17.20;83.80;;;;;;5147719;27;20039;-62
2022/06/17 06:48:17;;;;;;;12.38;8.75;;;17.20;83.60;;;;;;5103366;27;20035;-62
2022/06/17 06:50:43;;;;;;;13.93;8.40;;;17.20;83.60;;;;;;5152847;27;20037;-61
2022/06/17 06:53:09;;;;;;;14.85;8.95;;;17.30;83.70;;;;;;5149565;27;20089;-61
2022/06/17 06:55:37;;;;;;;17.30;9.27;;;17.40;83.90;;;;;;5147269;27;20069;-62
2022/06/17 06:58:08;;;;;;;12.45;8.93;;;17.40;83.30;;;;;;5148241;27;20030;-61
2022/06/17 07:00:37;;;;;;;13.40;8.60;;;17.50;83.20;;;;;;5141250;27;20047;-61
2022/06/17 07:03:04;;;;;;;11.98;8.27;;;17.70;83.30;;;;;;5152139;27;20126;-61
2022/06/17 07:05:31;;;;;;;11.38;8.73;;;17.90;82.90;;;;;;5154812;27;20090;-62
2022/06/17 07:07:57;;;;;;;11.27;7.82;;;17.90;81.80;;;;;;5148106;27;20047;-63
2022/06/17 07:10:29;;;;;;;10.18;8.43;;;18.10;81.10;;;;;;5143238;27;20042;-62
2022/06/17 07:12:55;;;;;;;12.20;8.30;;;18.40;80.70;;;;;;5149414;27;20035;-62
2022/06/17 07:15:22;;;;;;;9.93;7.57;;;18.50;78.40;;;;;;5151617;27;20046;-63
2022/06/17 07:18:06;;;;;;;10.95;8.13;;;18.50;79.00;;;;;;5135899;27;20186;-61
2022/06/17 07:20:42;;;;;;;14.77;8.77;;;18.70;78.40;;;;;;5152844;27;20044;-61
2022/06/17 07:23:09;;;;;;;14.68;8.38;;;19.00;77.00;;;;;;5151353;27;20027;-62
2022/06/17 07:25:35;;;;;;;11.65;8.65;;;19.00;77.10;;;;;;5154959;27;20126;-62
2022/06/17 07:28:03;;;;;;;14.25;8.07;;;19.00;76.60;;;;;;5145253;27;20497;-62
2022/06/17 07:30:29;;;;;;;10.77;8.35;;;19.20;76.40;;;;;;5107471;27;20039;-62
2022/06/17 07:32:55;;;;;;;10.02;8.35;;;19.40;75.10;;;;;;5122339;27;20035;-63
2022/06/17 07:35:20;;;;;;;12.88;9.38;;;19.50;74.90;;;;;;5147828;27;20044;-61
2022/06/17 07:40:31;;;;;;;9.68;8.02;;;19.70;74.40;;;;;;5154961;27;20053;-62
2022/06/17 07:42:58;;;;;;;10.55;7.53;;;19.90;74.30;;;;;;5107826;27;20035;-63
2022/06/17 07:45:24;;;;;;;11.27;7.90;;;20.10;73.80;;;;;;5130963;27;20038;-62
2022/06/17 07:47:51;;;;;;;10.27;7.47;;;20.10;72.30;;;;;;5145755;27;20035;-63
2022/06/17 07:50:30;;;;;;;8.85;7.28;;;20.20;71.70;;;;;;5154076;27;20085;-62
2022/06/17 07:52:56;;;;;;;10.15;7.10;;;20.10;67.70;;;;;;5149595;27;20062;-63
2022/06/17 07:55:21;;;;;;;8.30;6.72;;;20.40;70.20;;;;;;5152728;27;20073;-63
2022/06/17 07:57:47;;;;;;;9.93;6.68;;;20.90;69.90;;;;;;5153335;27;20409;-62
2022/06/17 08:00:36;;;;;;;8.60;6.78;;;21.20;66.30;;;;;;5099160;27;20114;-63
2022/06/17 08:03:03;;;;;;;10.70;7.18;;;21.60;64.80;;;;;;5152720;27;20414;-61
2022/06/17 08:05:30;;;;;;;9.27;5.95;;;21.60;61.60;;;;;;5151133;27;20066;-63
2022/06/17 08:07:57;;;;;;;9.50;5.72;;;22.00;66.30;;;;;;5116066;27;20052;-63
2022/06/17 08:10:27;;;;;;;7.65;5.55;;;22.50;65.70;;;;;;5148056;27;20050;-63
2022/06/17 08:12:53;;;;;;;7.55;5.82;;;22.90;64.30;;;;;;5152670;27;20045;-63
2022/06/17 08:15:19;;;;;;;6.60;5.00;;;23.20;64.00;;;;;;5129381;27;20470;-64
2022/06/17 08:17:45;;;;;;;8.57;5.38;;;23.10;62.90;;;;;;5149973;27;20038;-64
2022/06/17 08:20:24;;;;;;;7.25;5.43;;;23.30;62.10;;;;;;5115936;27;20053;-63
2022/06/17 08:22:50;;;;;;;10.15;6.05;;;23.00;59.40;;;;;;5153147;27;20371;-63
2022/06/17 08:25:18;;;;;;;7.75;5.35;;;22.90;61.70;;;;;;5139240;27;20038;-63
2022/06/17 08:27:49;;;;;;;7.32;5.88;;;22.60;57.70;;;;;;5127812;27;20053;-62
2022/06/17 08:30:18;;;;;;;7.63;4.95;;;22.60;57.70;;;;;;5151257;27;20115;-63
2022/06/17 08:32:46;;;;;;;6.22;5.25;;;22.60;60.50;;;;;;5154190;27;20164;-63
2022/06/17 08:35:18;;;;;;;8.48;4.72;;;22.70;60.20;;;;;;5149940;27;20526;-64
2022/06/17 08:37:45;;;;;;;6.68;4.78;;;23.20;60.10;;;;;;5152263;27;20030;-63
2022/06/17 08:40:30;;;;;;;8.40;5.03;;;23.60;59.00;;;;;;5151764;27;20046;-65
2022/06/17 08:43:10;;;;;;;5.80;4.20;;;24.20;56.00;;;;;;5150674;27;20031;-64
2022/06/17 08:45:49;;;;;;;;;;;24.80;54.30;;;;;;5145197;27;20069;-64
2022/06/17 08:48:42;;;;;;;7.38;4.80;;;24.90;51.40;;;;;;5147744;27;19959;-65
2022/06/17 08:51:24;;;;;;;5.90;4.57;;;25.40;52.40;;;;;;5152891;27;20042;-63
2022/06/17 08:54:04;;;;;;;8.13;4.85;;;25.70;50.80;;;;;;5116192;27;20094;-65
2022/06/17 08:56:44;;;;;;;7.47;5.43;;;25.50;52.10;;;;;;5153657;27;20038;-63
2022/06/17 08:59:30;;;;;;;8.93;5.55;;;24.90;48.50;;;;;;5131755;27;20046;-63
2022/06/17 09:02:19;;;;;;;5.78;4.65;;;24.40;49.10;;;;;;5149141;27;20656;-64
2022/06/17 09:05:14;;;;;;;8.32;4.53;;;23.90;53.00;;;;;;5140127;27;20035;-63
2022/06/17 09:08:04;;;;;;;4.70;4.13;;;24.10;53.30;;;;;;5146448;27;20493;-64
2022/06/17 09:10:46;;;;;;;9.75;5.30;;;24.10;53.40;;;;;;5140973;27;20043;-65
2022/06/17 09:13:35;;;;;;;6.47;4.25;;;23.90;52.90;;;;;;5131360;27;20038;-63
2022/06/17 09:16:28;;;;;;;5.95;3.72;;;23.90;53.90;;;;;;5127653;27;20050;-64
2022/06/17 09:19:00;;;;;;;6.75;4.22;;;23.90;54.70;;;;;;5149712;27;20039;-64
2022/06/17 09:21:32;;;;;;;6.03;4.28;;;23.70;54.30;;;;;;5150256;27;20046;-63
2022/06/17 09:24:05;;;;;;;9.10;4.93;;;23.80;53.70;;;;;;5151646;27;20074;-63
2022/06/17 09:26:41;;;;;;;5.22;4.63;;;23.80;52.50;;;;;;5146660;27;20042;-65
2022/06/17 09:29:25;;;;;;;9.07;4.25;;;23.70;53.20;;;;;;5137905;27;20046;-63
2022/06/17 09:32:03;;;;;;;8.00;4.80;;;23.90;52.50;;;;;;5146634;27;20056;-63
2022/06/17 09:34:39;;;;;;;7.80;5.00;;;23.90;53.20;;;;;;5119473;27;20042;-64
2022/06/17 09:37:11;;;;;;;7.38;4.50;;;23.70;53.00;;;;;;5141916;27;20085;-63
2022/06/17 09:39:47;;;;;;;7.70;5.20;;;23.70;53.20;;;;;;5144463;27;21020;-63
2022/06/17 09:42:21;;;;;;;9.82;5.32;;;23.60;53.70;;;;;;5141008;27;20587;-63
2022/06/17 09:45:06;;;;;;;7.32;5.07;;;23.80;53.60;;;;;;5150438;27;20596;-63
2022/06/17 09:47:54;;;;;;;7.38;5.05;;;23.50;53.20;;;;;;5149817;27;20049;-63
2022/06/17 09:50:28;;;;;;;7.93;5.50;;;23.70;54.60;;;;;;5149535;27;20035;-64
2022/06/17 09:53:12;;;;;;;6.80;4.63;;;23.80;53.50;;;;;;5148070;27;20223;-64
2022/06/17 09:55:53;;;;;;;5.75;4.40;;;24.40;54.10;;;;;;5154480;27;20046;-63
2022/06/17 09:58:43;;;;;;;5.10;4.13;;;24.70;53.40;;;;;;5151624;27;20696;-64
2022/06/17 10:01:10;;;;;;;6.32;4.82;;;25.30;53.00;;;;;;5150239;27;20076;-64
2022/06/17 10:03:38;;;;;;;6.63;4.70;;;25.80;51.90;;;;;;5150095;27;20542;-64
2022/06/17 10:06:38;;;;;;;7.55;4.22;;;25.30;50.80;;;;;;5148421;27;20053;-63
2022/06/17 10:09:32;;;;;;;5.43;4.07;;;25.20;49.50;;;;;;5159855;27;20082;-64
2022/06/17 10:12:02;;;;;;;5.95;3.80;;;25.10;50.50;;;;;;5151980;27;20050;-63
2022/06/17 10:15:00;;;;;;;6.53;3.60;;;24.70;51.10;;;;;;5145948;27;20038;-64
2022/06/17 10:21:02;;;;;;;5.60;3.83;;;24.30;49.10;;;;;;5121650;27;20074;-64
2022/06/17 10:23:52;;;;;;;4.60;3.58;;;24.40;51.60;;;;;;5146788;27;20059;-64
2022/06/17 10:26:36;;;;;;;;;;;24.30;51.90;;;;;;5153651;27;20045;-65
2022/06/17 10:29:05;;;;;;;7.55;3.97;;;24.40;52.30;;;;;;5147689;27;19915;-63
2022/06/17 10:31:41;;;;;;;6.10;3.42;;;24.40;51.30;;;;;;5132773;27;20043;-63
2022/06/17 10:34:31;;;;;;;5.50;3.60;;;24.50;51.40;;;;;;5145276;27;20058;-63
2022/06/17 10:37:01;;;;;;;4.60;3.15;;;24.40;50.80;;;;;;5149747;27;20042;-64
2022/06/17 10:39:29;;;;;;;6.40;3.55;;;24.50;50.20;;;;;;5125738;27;20043;-63
2022/06/17 10:41:57;;;;;;;4.95;3.58;;;24.50;50.40;;;;;;5152581;27;20031;-63
2022/06/17 10:44:24;;;;;;;5.07;3.47;;;24.30;50.50;;;;;;5134829;27;20034;-64
2022/06/17 10:47:07;;;;;;;4.75;3.58;;;24.30;50.70;;;;;;5152884;27;20087;-63
2022/06/17 10:49:40;;;;;;;5.32;3.65;;;23.80;50.90;;;;;;5155869;27;20507;-64
2022/06/17 10:52:24;;;;;;;8.52;4.05;;;23.80;51.20;;;;;;5152864;27;20045;-63
2022/06/17 10:54:52;;;;;;;8.13;3.83;;;24.00;51.20;;;;;;5142916;27;20072;-64
2022/06/17 10:57:37;;;;;;;8.35;3.47;;;23.90;51.10;;;;;;5143902;27;20039;-64
2022/06/17 11:00:22;;;;;;;5.47;3.35;;;24.00;51.10;;;;;;5143952;27;20829;-65
2022/06/17 11:02:48;;;;;;;4.65;3.55;;;24.40;51.60;;;;;;5148597;27;20189;-65
2022/06/17 11:05:29;;;;;;;5.60;4.47;;;24.30;51.00;;;;;;5145442;27;20779;-62
2022/06/17 11:07:58;;;;;;;7.70;4.40;;;24.40;49.90;;;;;;5116868;27;20134;-63
2022/06/17 11:10:29;;;;;;;7.40;4.20;;;24.80;51.10;;;;;;5122151;27;20035;-63
2022/06/17 11:13:01;;;;;;;6.00;4.20;;;25.30;50.40;;;;;;5149540;27;20094;-65
2022/06/17 11:15:30;;;;;;;7.15;4.47;;;25.70;50.20;;;;;;5150653;27;20408;-64
2022/06/17 11:18:04;;;;;;;6.60;4.80;;;25.90;49.30;;;;;;5153759;27;20379;-64
2022/06/17 11:20:32;;;;;;;6.45;4.30;;;26.00;48.60;;;;;;5153259;27;20050;-62
2022/06/17 11:23:06;;;;;;;8.48;4.53;;;26.00;48.00;;;;;;5148833;27;20357;-64
2022/06/17 11:25:32;;;;;;;8.15;5.03;;;26.20;47.90;;;;;;5151155;27;20031;-63
2022/06/17 11:28:17;;;;;;;8.73;4.43;;;26.00;48.00;;;;;;5149345;27;20042;-63
2022/06/17 11:30:57;;;;;;;7.68;4.57;;;26.20;48.30;;;;;;5147435;27;20031;-63
2022/06/17 11:33:40;;;;;;;5.30;3.85;;;25.80;48.20;;;;;;5148096;27;20046;-63
2022/06/17 11:36:15;;;;;;;5.80;4.50;;;26.00;48.40;;;;;;5153806;27;20054;-63
2022/06/17 11:38:41;;;;;;;6.47;4.85;;;25.90;48.40;;;;;;5154205;27;20075;-64
2022/06/17 11:41:07;;;;;;;7.30;4.32;;;25.90;47.70;;;;;;5145772;27;20038;-64
2022/06/17 11:43:45;;;;;;;8.45;4.07;;;25.80;48.10;;;;;;5152836;27;20140;-63
2022/06/17 11:46:16;;;;;;;9.05;4.68;;;25.60;48.30;;;;;;5148722;27;20073;-64
2022/06/17 11:48:47;;;;;;;6.18;3.75;;;25.50;48.40;;;;;;5152921;27;20110;-63
2022/06/17 11:51:17;;;;;;;7.10;3.70;;;25.80;48.20;;;;;;5151379;27;20051;-63
2022/06/17 11:53:44;;;;;;;;;;;25.90;47.60;;;;;;5151709;27;20059;-62
2022/06/17 11:56:11;;;;;;;7.15;3.80;;;26.10;46.60;;;;;;5132785;27;19926;-64
2022/06/17 11:58:57;;;;;;;6.70;3.00;;;26.10;47.20;;;;;;5135007;27;20043;-64
2022/06/17 12:01:23;;;;;;;6.05;3.47;;;26.80;46.70;;;;;;5133279;27;20047;-64
2022/06/17 12:03:48;;;;;;;6.57;3.35;;;27.10;45.90;;;;;;5148981;27;20394;-64
2022/06/17 12:06:27;;;;;;;5.00;3.35;;;27.60;45.50;;;;;;5153809;27;20031;-63
2022/06/17 12:09:01;;;;;;;5.70;3.78;;;27.90;44.20;;;;;;5149481;27;20038;-64
2022/06/17 12:11:42;;;;;;;7.07;3.70;;;27.50;44.30;;;;;;5124044;27;20121;-64
2022/06/17 12:14:16;;;;;;;5.57;3.58;;;28.10;43.70;;;;;;5131620;27;20046;-64
2022/06/17 12:16:43;;;;;;;4.63;3.80;;;28.60;42.70;;;;;;5119476;27;20031;-64
2022/06/17 12:19:18;;;;;;;6.93;3.30;;;28.60;43.00;;;;;;5148905;27;20042;-63
2022/06/17 12:21:57;;;;;;;6.05;3.65;;;28.80;42.70;;;;;;5151604;27;20127;-64
2022/06/17 12:24:34;;;;;;;6.53;3.42;;;29.40;41.50;;;;;;5152336;27;20211;-65
2022/06/17 12:27:07;;;;;;;7.20;4.35;;;29.70;41.60;;;;;;5154378;27;20043;-65
2022/06/17 12:29:39;;;;;;;13.32;3.80;;;29.40;37.90;;;;;;5133123;27;20039;-64
2022/06/17 12:32:14;;;;;;;7.40;3.95;;;30.30;40.30;;;;;;5150513;27;20034;-63
2022/06/17 12:34:55;;;;;;;4.38;3.35;;;30.60;37.00;;;;;;5144494;27;20046;-64
2022/06/17 12:37:42;;;;;;;7.45;3.47;;;30.90;37.60;;;;;;5138165;27;20088;-63
2022/06/17 12:40:13;;;;;;;6.07;3.75;;;29.90;39.00;;;;;;5151987;27;20038;-64
2022/06/17 12:43:06;;;;;;;8.00;3.65;;;30.60;40.10;;;;;;5154045;27;20030;-64
2022/06/17 12:45:58;;;;;;;3.35;2.75;;;31.00;38.00;;;;;;5150006;27;20039;-65
2022/06/17 12:48:32;;;;;;;5.90;3.10;;;31.80;38.10;;;;;;5142713;27;20046;-64
2022/06/17 12:54:08;;;;;;;5.65;3.50;;;31.40;36.10;;;;;;5142462;27;20099;-64
2022/06/17 12:57:03;;;;;;;7.13;3.30;;;31.00;35.50;;;;;;5152549;27;20387;-64
2022/06/17 12:59:47;;;;;;;7.38;4.05;;;31.00;36.60;;;;;;5146225;27;20440;-64
2022/06/17 13:02:19;;;;;;;4.97;3.38;;;31.60;36.90;;;;;;5151472;27;20039;-64
2022/06/17 13:05:03;;;;;;;5.03;3.40;;;32.70;35.60;;;;;;5151366;27;20038;-64
2022/06/17 13:07:55;;;;;;;6.43;3.13;;;32.00;33.80;;;;;;5150005;27;20046;-64
2022/06/17 13:10:41;;;;;;;4.13;2.92;;;30.80;35.70;;;;;;5149436;27;20410;-65
2022/06/17 13:13:19;;;;;;;4.20;3.38;;;31.20;36.10;;;;;;5148701;27;20042;-65
2022/06/17 13:16:32;;;;;;;4.63;3.75;;;31.10;36.30;;;;;;5150815;27;20402;-64
2022/06/17 13:19:18;;;;;;;4.75;3.45;;;30.80;35.60;;;;;;5129698;27;20046;-66
2022/06/17 13:21:51;;;;;;;7.00;3.22;;;29.90;36.30;;;;;;5146883;27;20474;-64
2022/06/17 13:24:34;;;;;;;4.63;3.10;;;29.90;37.70;;;;;;5154722;27;20062;-64